Circle Line Brooklyn — WDE8160 — position and weather

sailwx.info

Track history (hours):
 
Tides and Currents Weather Stations Pressure Air Temp Water Temp Dewpoint Dewpoint Depression Visibility Wind Speed Wind Dir Waves Ship Positions

Circle Line Brooklyn

Owner: Circle Line Sight Seeing Yachts Inc., New York, NY. More information available from US FCC via Universal Licensing System and Coast Guard Vessel Documentation Center.

Last reported at 2014-Nov-22 21:34 UTC. Time now 2014-Nov-23 11:14 UTC.
Position N 40°47' W 073°60'.

; draft 2.4 m.

MMSI: 367402250.

Date/timePositionNaut miles runAvg speedWind from/ knotsBaromVisibWave heightAir tempDewpointWater temp
2014-Nov-22 21:34N 40°47' W 073°60'5 2.3
2014-Nov-22 19:33N 40°48' W 073°54'8 8.3
2014-Nov-22 18:33N 40°42' W 074°01'3 3.2
2014-Nov-22 17:33N 40°45' W 074°01'1 1.2
2014-Nov-22 16:31N 40°46' W 074°00'0 0.0
2014-Nov-22 15:31N 40°46' W 074°00'0 0.0
2014-Nov-22 14:31N 40°46' W 074°00'0 0.0
2014-Nov-22 13:31N 40°46' W 074°00'2 0.1
2014-Nov-21 22:33N 40°44' W 074°01'3 3.2
2014-Nov-21 21:34N 40°41' W 074°03'5 4.6
2014-Nov-21 20:29N 40°46' W 074°00'3 1.8
2014-Nov-21 18:33N 40°42' W 073°59'4 3.5
2014-Nov-21 17:33N 40°46' W 074°00'0 0.0
2014-Nov-21 16:33N 40°46' W 074°00'5 4.5
2014-Nov-21 15:33N 40°42' W 074°02'5 4.5
2014-Nov-21 14:34N 40°46' W 074°00'2 0.1
2014-Nov-20 22:33N 40°44' W 074°01'3 3.2
2014-Nov-20 21:33N 40°41' W 074°02'5 4.1
2014-Nov-20 20:21N 40°46' W 074°00'2 1.1
2014-Nov-20 18:33N 40°45' W 073°58'2 2.0
2014-Nov-20 17:33N 40°46' W 074°00'0 0.0
2014-Nov-20 16:33N 40°46' W 074°00'5 5.0
2014-Nov-20 15:34N 40°41' W 074°03'5 4.8
2014-Nov-20 14:31N 40°46' W 074°00'0 0.0
2014-Nov-20 13:31N 40°46' W 074°00'0 0.0
2014-Nov-20 12:28N 40°46' W 074°00'1 0.0
2014-Nov-18 22:34N 40°44' W 074°01'4 3.5
2014-Nov-18 21:33N 40°41' W 074°03'5 4.6
2014-Nov-18 20:28N 40°46' W 074°00'2 1.1
2014-Nov-18 18:33N 40°45' W 073°57'2 2.1
2014-Nov-18 17:33N 40°46' W 074°00'0 0.0
2014-Nov-18 16:34N 40°46' W 074°00'5 4.8
2014-Nov-18 15:33N 40°41' W 074°03'5 5.0
2014-Nov-18 14:33N 40°46' W 074°00'0 0.0
2014-Nov-17 13:09N 40°46' W 074°00'0 0.0
2014-Nov-17 12:33N 40°46' W 074°00'1 0.1
2014-Nov-16 22:34N 40°45' W 074°01'4 3.7
2014-Nov-16 21:33N 40°41' W 074°03'5 4.8
2014-Nov-16 20:30N 40°46' W 074°00'2 1.1
2014-Nov-16 18:33N 40°45' W 073°57'2 2.2
2014-Nov-16 17:33N 40°46' W 074°00'0 0.0
2014-Nov-16 16:33N 40°46' W 074°00'5 4.9
2014-Nov-16 15:34N 40°41' W 074°03'5 0.3
2014-Nov-16 01:04N 40°46' W 074°00'2 3.4
2014-Nov-16 00:33N 40°44' W 074°01'2 2.5
2014-Nov-15 23:33N 40°42' W 073°59'3 3.3
2014-Nov-15 22:31N 40°46' W 074°00'0 0.0
2014-Nov-15 21:31N 40°46' W 074°00'0 0.0
2014-Nov-15 20:28N 40°46' W 074°00'0 0.0
2014-Nov-15 19:28N 40°46' W 074°00'0 0.0
2014-Nov-15 17:31N 40°46' W 074°00'0 0.0
2014-Nov-15 16:31N 40°46' W 074°00'0 0.0
2014-Nov-15 15:31N 40°46' W 074°00'1 0.1
2014-Nov-14 22:33N 40°44' W 074°01'3 3.5
2014-Nov-14 21:33N 40°41' W 074°03'5 4.7
2014-Nov-14 20:30N 40°46' W 074°00'2 1.0
2014-Nov-14 18:34N 40°45' W 073°58'2 1.9
2014-Nov-14 17:31N 40°46' W 074°00'0 0.0
2014-Nov-14 16:31N 40°46' W 074°00'5 5.1
2014-Nov-14 15:33N 40°41' W 074°03'5 4.7
2014-Nov-14 14:30N 40°46' W 074°00'0 0.0
2014-Nov-14 12:33N 40°46' W 074°00'2 0.1
2014-Nov-13 22:33N 40°44' W 074°01'4 3.6
2014-Nov-13 21:33N 40°41' W 074°03'5 5.1
2014-Nov-13 20:33N 40°46' W 074°00'2 1.2
2014-Nov-13 18:33N 40°44' W 073°58'2 2.4
2014-Nov-13 17:34N 40°46' W 074°00'0 0.0
2014-Nov-13 16:33N 40°46' W 074°00'5 4.9
2014-Nov-13 15:33N 40°41' W 074°03'5 4.7
2014-Nov-13 14:32N 40°46' W 074°00'0 0.0
2014-Nov-13 13:33N 40°46' W 074°00'0 0.0
2014-Nov-13 12:33N 40°46' W 074°00'  
Track history (hours):
 
Tides and Currents Weather Stations Pressure Air Temp Water Temp Dewpoint Dewpoint Depression Visibility Wind Speed Wind Dir Waves Ship Positions

Circle Line Brooklyn

Owner: Circle Line Sight Seeing Yachts Inc., New York, NY. More information available from US FCC via Universal Licensing System and Coast Guard Vessel Documentation Center.

Last reported at 2014-Nov-22 21:34 UTC. Time now 2014-Nov-23 11:14 UTC.
Position N 40°47' W 073°60'.

; draft 2.4 m.

MMSI: 367402250.

Date/timePositionNaut miles runAvg speedWind from/ knotsBaromVisibWave heightAir tempDewpointWater temp
2014-Nov-22 21:34N 40°47' W 073°60'5 2.3
2014-Nov-22 19:33N 40°48' W 073°54'8 8.3
2014-Nov-22 18:33N 40°42' W 074°01'3 3.2
2014-Nov-22 17:33N 40°45' W 074°01'1 1.2
2014-Nov-22 16:31N 40°46' W 074°00'0 0.0
2014-Nov-22 15:31N 40°46' W 074°00'0 0.0
2014-Nov-22 14:31N 40°46' W 074°00'0 0.0
2014-Nov-22 13:31N 40°46' W 074°00'2 0.1
2014-Nov-21 22:33N 40°44' W 074°01'3 3.2
2014-Nov-21 21:34N 40°41' W 074°03'5 4.6
2014-Nov-21 20:29N 40°46' W 074°00'3 1.8
2014-Nov-21 18:33N 40°42' W 073°59'4 3.5
2014-Nov-21 17:33N 40°46' W 074°00'0 0.0
2014-Nov-21 16:33N 40°46' W 074°00'5 4.5
2014-Nov-21 15:33N 40°42' W 074°02'5 4.5
2014-Nov-21 14:34N 40°46' W 074°00'2 0.1
2014-Nov-20 22:33N 40°44' W 074°01'3 3.2
2014-Nov-20 21:33N 40°41' W 074°02'5 4.1
2014-Nov-20 20:21N 40°46' W 074°00'2 1.1
2014-Nov-20 18:33N 40°45' W 073°58'2 2.0
2014-Nov-20 17:33N 40°46' W 074°00'0 0.0
2014-Nov-20 16:33N 40°46' W 074°00'5 5.0
2014-Nov-20 15:34N 40°41' W 074°03'5 4.8
2014-Nov-20 14:31N 40°46' W 074°00'0 0.0
2014-Nov-20 13:31N 40°46' W 074°00'0 0.0
2014-Nov-20 12:28N 40°46' W 074°00'1 0.0
2014-Nov-18 22:34N 40°44' W 074°01'4 3.5
2014-Nov-18 21:33N 40°41' W 074°03'5 4.6
2014-Nov-18 20:28N 40°46' W 074°00'2 1.1
2014-Nov-18 18:33N 40°45' W 073°57'2 2.1
2014-Nov-18 17:33N 40°46' W 074°00'0 0.0
2014-Nov-18 16:34N 40°46' W 074°00'5 4.8
2014-Nov-18 15:33N 40°41' W 074°03'5 5.0
2014-Nov-18 14:33N 40°46' W 074°00'0 0.0
2014-Nov-17 13:09N 40°46' W 074°00'0 0.0
2014-Nov-17 12:33N 40°46' W 074°00'1 0.1
2014-Nov-16 22:34N 40°45' W 074°01'4 3.7
2014-Nov-16 21:33N 40°41' W 074°03'5 4.8
2014-Nov-16 20:30N 40°46' W 074°00'2 1.1
2014-Nov-16 18:33N 40°45' W 073°57'2 2.2
2014-Nov-16 17:33N 40°46' W 074°00'0 0.0
2014-Nov-16 16:33N 40°46' W 074°00'5 4.9
2014-Nov-16 15:34N 40°41' W 074°03'5 0.3
2014-Nov-16 01:04N 40°46' W 074°00'2 3.4
2014-Nov-16 00:33N 40°44' W 074°01'2 2.5
2014-Nov-15 23:33N 40°42' W 073°59'3 3.3
2014-Nov-15 22:31N 40°46' W 074°00'0 0.0
2014-Nov-15 21:31N 40°46' W 074°00'0 0.0
2014-Nov-15 20:28N 40°46' W 074°00'0 0.0
2014-Nov-15 19:28N 40°46' W 074°00'0 0.0
2014-Nov-15 17:31N 40°46' W 074°00'0 0.0
2014-Nov-15 16:31N 40°46' W 074°00'0 0.0
2014-Nov-15 15:31N 40°46' W 074°00'1 0.1
2014-Nov-14 22:33N 40°44' W 074°01'3 3.5
2014-Nov-14 21:33N 40°41' W 074°03'5 4.7
2014-Nov-14 20:30N 40°46' W 074°00'2 1.0
2014-Nov-14 18:34N 40°45' W 073°58'2 1.9
2014-Nov-14 17:31N 40°46' W 074°00'0 0.0
2014-Nov-14 16:31N 40°46' W 074°00'5 5.1
2014-Nov-14 15:33N 40°41' W 074°03'5 4.7
2014-Nov-14 14:30N 40°46' W 074°00'0 0.0
2014-Nov-14 12:33N 40°46' W 074°00'2 0.1
2014-Nov-13 22:33N 40°44' W 074°01'4 3.6
2014-Nov-13 21:33N 40°41' W 074°03'5 5.1
2014-Nov-13 20:33N 40°46' W 074°00'2 1.2
2014-Nov-13 18:33N 40°44' W 073°58'2 2.4
2014-Nov-13 17:34N 40°46' W 074°00'0 0.0
2014-Nov-13 16:33N 40°46' W 074°00'5 4.9
2014-Nov-13 15:33N 40°41' W 074°03'5 4.7
2014-Nov-13 14:32N 40°46' W 074°00'0 0.0
2014-Nov-13 13:33N 40°46' W 074°00'0 0.0
2014-Nov-13 12:33N 40°46' W 074°00'  

Dump ship's entire track history